Time;durP1;ratioP1;P1;durP2;ratioP2;P2;SDS_P1;SDS_P2;PMS_P1;PMS_P2;Temp;Humidity;BMP_temperature;BMP_pressure;BME280_temperature;BME280_humidity;BME280_pressure;Samples;Min_cycle;Max_cycle;Signal;HPM_P1;HPM_P2
2023/03/08 00:03:46;;;;;;;0.82;0.40;;;;;;;19.38;35.92;99978.03;16122425;19;130913;-41
2023/03/08 00:09:09;;;;;;;0.50;0.40;;;;;;;19.32;35.73;99973.56;16121507;19;129434;-41
2023/03/08 00:14:30;;;;;;;0.55;0.30;;;;;;;19.28;35.84;99972.44;16118913;19;130398;-42
2023/03/08 00:19:52;;;;;;;1.05;0.40;;;;;;;19.23;35.86;99973.28;16122048;19;130470;-41
2023/03/08 00:25:15;;;;;;;1.50;0.43;;;;;;;19.20;35.84;99968.25;16124740;19;130180;-40
2023/03/08 00:30:37;;;;;;;0.68;0.30;;;;;;;19.15;35.78;99957.97;16118607;19;129904;-44
2023/03/08 00:36:01;;;;;;;2.67;0.40;;;;;;;19.12;35.89;99964.09;16122942;19;129652;-41
2023/03/08 00:41:23;;;;;;;0.77;0.50;;;;;;;19.07;36.03;99962.13;16119973;19;129707;-42
2023/03/08 00:46:45;;;;;;;0.38;0.30;;;;;;;19.04;35.97;99959.91;16114672;19;129520;-42
2023/03/08 00:52:07;;;;;;;1.85;0.50;;;;;;;19.01;36.02;99957.66;16119482;19;130574;-41
2023/03/08 00:57:30;;;;;;;0.50;0.32;;;;;;;19.00;35.80;99946.88;16117201;19;129306;-41
2023/03/08 01:02:52;;;;;;;0.70;0.40;;;;;;;18.96;36.12;99937.41;16115781;19;130755;-40
2023/03/08 01:08:16;;;;;;;1.40;0.80;;;;;;;18.88;35.81;99933.22;16114069;19;130471;-40
2023/03/08 01:13:37;;;;;;;4.75;1.17;;;;;;;18.82;35.58;99907.44;16116794;19;129636;-40
2023/03/08 01:19:00;;;;;;;1.67;0.70;;;;;;;18.77;35.70;99905.50;16116017;19;130216;-39
2023/03/08 01:24:22;;;;;;;2.35;1.05;;;;;;;18.76;35.89;99892.75;16116190;19;131237;-41
2023/03/08 01:29:44;;;;;;;0.57;0.50;;;;;;;18.77;35.46;99880.56;16115357;19;129488;-40
2023/03/08 01:35:06;;;;;;;1.42;0.90;;;;;;;18.76;35.76;99878.88;16117940;19;129727;-41
2023/03/08 01:40:28;;;;;;;1.92;1.02;;;;;;;18.75;35.38;99882.75;16117065;19;131059;-40
2023/03/08 01:46:17;;;;;;;3.65;0.60;;;;;;;18.77;35.79;99885.25;16119118;19;129532;-40
2023/03/08 01:51:43;;;;;;;0.90;0.50;;;;;;;18.72;35.71;99875.00;16114594;19;129474;-40
2023/03/08 01:57:17;;;;;;;1.27;0.70;;;;;;;18.71;35.55;99853.09;16109881;19;130660;-41
2023/03/08 02:02:48;;;;;;;0.57;0.47;;;;;;;18.68;35.43;99854.50;16113754;19;129610;-45
2023/03/08 02:08:10;;;;;;;1.33;0.60;;;;;;;18.65;35.61;99838.41;16114899;19;130518;-41
2023/03/08 02:13:31;;;;;;;1.52;0.60;;;;;;;18.64;35.95;99831.22;16115514;19;129395;-42
2023/03/08 02:18:57;;;;;;;0.90;0.50;;;;;;;18.62;35.91;99814.03;16112929;19;129004;-40
2023/03/08 02:24:23;;;;;;;1.10;0.38;;;;;;;18.60;35.68;99796.84;16112265;19;129257;-41
2023/03/08 02:29:46;;;;;;;1.45;0.50;;;;;;;18.57;35.96;99789.91;16111927;19;131350;-42
2023/03/08 02:35:08;;;;;;;0.82;0.50;;;;;;;18.55;35.87;99783.81;16114998;19;128995;-40
2023/03/08 02:40:30;;;;;;;1.23;0.60;;;;;;;18.54;35.53;99781.31;16116945;19;133457;-40
2023/03/08 02:45:52;;;;;;;0.60;0.60;;;;;;;18.52;35.65;99775.22;16127973;19;130052;-41
2023/03/08 02:51:14;;;;;;;0.82;0.50;;;;;;;18.49;35.74;99770.22;16130433;19;129425;-41
2023/03/08 02:56:36;;;;;;;1.20;0.40;;;;;;;18.48;35.84;99771.31;16125662;19;134806;-40
2023/03/08 03:01:58;;;;;;;0.40;0.40;;;;;;;18.45;35.96;99751.41;16127102;19;130247;-40
2023/03/08 03:07:20;;;;;;;0.40;0.40;;;;;;;18.43;35.58;99736.16;16125756;19;132355;-40
2023/03/08 03:12:42;;;;;;;0.47;0.47;;;;;;;18.41;35.65;99728.13;16124194;19;129829;-40
2023/03/08 03:18:04;;;;;;;0.65;0.63;;;;;;;18.40;35.95;99714.56;16123620;19;129954;-40
2023/03/08 03:23:28;;;;;;;0.55;0.55;;;;;;;18.38;35.78;99709.25;16124837;19;129744;-42
2023/03/08 03:28:53;;;;;;;1.08;0.68;;;;;;;18.36;35.56;99707.88;16124330;19;129733;-40
2023/03/08 03:34:15;;;;;;;1.80;0.80;;;;;;;18.33;35.69;99695.41;16123723;19;129122;-40
2023/03/08 03:39:37;;;;;;;0.60;0.60;;;;;;;18.32;35.85;99688.22;16123933;19;130655;-41
2023/03/08 03:44:59;;;;;;;0.90;0.60;;;;;;;18.31;35.40;99678.25;16122745;19;130968;-39
2023/03/08 03:50:21;;;;;;;0.70;0.70;;;;;;;18.28;35.37;99674.06;16122518;19;130361;-40
2023/03/08 03:55:42;;;;;;;0.82;0.65;;;;;;;18.25;35.33;99659.94;16117638;19;129501;-41
2023/03/08 04:01:09;;;;;;;0.60;0.60;;;;;;;18.24;35.32;99649.97;16118702;19;129646;-41
2023/03/08 04:06:33;;;;;;;0.52;0.40;;;;;;;18.21;35.34;99637.53;16120554;19;132068;-42
2023/03/08 04:11:55;;;;;;;0.52;0.50;;;;;;;18.20;35.54;99632.28;16123891;19;129417;-40
2023/03/08 04:17:16;;;;;;;0.70;0.70;;;;;;;18.18;35.08;99615.09;16118615;19;131130;-40
2023/03/08 04:22:38;;;;;;;0.68;0.50;;;;;;;18.14;35.20;99601.81;16123701;19;129751;-40
2023/03/08 04:28:00;;;;;;;0.50;0.50;;;;;;;18.12;35.21;99590.19;16123940;19;131495;-41
2023/03/08 04:33:22;;;;;;;0.80;0.70;;;;;;;18.10;35.07;99584.09;16119391;19;129482;-40
2023/03/08 04:38:45;;;;;;;2.13;0.50;;;;;;;18.08;34.90;99589.09;16119435;19;130034;-40
2023/03/08 04:44:07;;;;;;;0.40;0.40;;;;;;;18.06;35.10;99574.69;16120545;19;129908;-41
2023/03/08 04:49:29;;;;;;;0.80;0.57;;;;;;;18.03;35.04;99566.94;16122039;19;130592;-42
2023/03/08 04:54:51;;;;;;;0.65;0.60;;;;;;;18.01;35.12;99547.00;16121093;19;133383;-40
2023/03/08 05:00:13;;;;;;;0.73;0.50;;;;;;;17.99;34.48;99538.16;16117841;19;128994;-40
2023/03/08 05:05:37;;;;;;;0.50;0.50;;;;;;;17.97;34.72;99526.53;16113972;19;129863;-40
2023/03/08 05:11:01;;;;;;;0.30;0.30;;;;;;;17.95;34.66;99520.44;16118412;19;130099;-40
2023/03/08 05:16:24;;;;;;;0.90;0.40;;;;;;;17.91;34.25;99500.78;16117830;19;130863;-40
2023/03/08 05:21:46;;;;;;;0.50;0.40;;;;;;;17.90;34.31;99490.84;16117001;19;130038;-40
2023/03/08 05:27:08;;;;;;;1.48;0.73;;;;;;;17.87;34.26;99469.25;16119589;19;130562;-40
2023/03/08 05:32:29;;;;;;;1.00;0.60;;;;;;;17.84;34.26;99437.47;16111716;19;131946;-40
2023/03/08 05:37:51;;;;;;;1.40;0.50;;;;;;;17.81;33.67;99431.63;16117002;19;130451;-40
2023/03/08 05:43:13;;;;;;;2.28;0.35;;;;;;;17.79;33.41;99431.06;16116350;19;129505;-41
2023/03/08 05:48:36;;;;;;;0.73;0.30;;;;;;;17.76;33.59;99424.16;16113968;19;130486;-41
2023/03/08 05:53:57;;;;;;;0.60;0.40;;;;;;;17.74;33.52;99426.38;16111648;19;129529;-40
2023/03/08 05:59:19;;;;;;;0.45;0.20;;;;;;;17.73;33.52;99402.59;16113278;19;133211;-41
2023/03/08 06:04:41;;;;;;;0.20;0.20;;;;;;;17.73;33.39;99394.28;16112620;19;130304;-41
2023/03/08 06:10:04;;;;;;;0.50;0.30;;;;;;;17.83;33.50;99397.06;16113696;19;129567;-41
2023/03/08 06:15:25;;;;;;;0.82;0.20;;;;;;;18.27;32.86;99386.44;16119900;19;130351;-43
2023/03/08 06:21:11;;;;;;;1.55;0.30;;;;;;;18.81;32.23;99382.09;16133240;19;129926;-43
2023/03/08 06:26:33;;;;;;;0.52;0.20;;;;;;;19.18;32.08;99377.19;16129733;19;132510;-42
2023/03/08 06:31:54;;;;;;;3.78;0.30;;;;;;;19.48;31.32;99378.91;16126873;19;130424;-43
2023/03/08 06:37:19;;;;;;;4.18;0.40;;;;;;;19.64;30.44;99374.06;16116433;19;130867;-42
2023/03/08 06:42:41;;;;;;;2.33;0.30;;;;;;;19.66;30.58;99360.72;16121046;19;130259;-42
2023/03/08 06:48:02;;;;;;;7.35;0.50;;;;;;;19.60;30.18;99353.56;16123798;19;129826;-43
2023/03/08 06:53:24;;;;;;;10.38;0.60;;;;;;;19.51;30.48;99338.69;16117771;19;129756;-41
2023/03/08 06:58:46;;;;;;;9.30;0.60;;;;;;;19.36;30.52;99332.13;16125707;19;129738;-40
2023/03/08 07:04:08;;;;;;;3.80;0.60;;;;;;;19.22;30.73;99320.91;16123172;19;131395;-41
2023/03/08 07:09:30;;;;;;;3.83;0.38;;;;;;;19.08;30.94;99309.59;16125615;19;130402;-42
2023/03/08 07:14:52;;;;;;;5.40;0.40;;;;;;;18.95;31.27;99298.34;16127196;19;129618;-44
2023/03/08 07:20:17;;;;;;;2.63;0.43;;;;;;;18.82;31.17;99294.28;16127387;19;129785;-42
2023/03/08 07:25:39;;;;;;;3.40;0.40;;;;;;;18.69;30.96;99281.88;16121099;19;128946;-41
2023/03/08 07:31:02;;;;;;;1.77;0.40;;;;;;;18.57;31.27;99263.69;16124507;19;130437;-40
2023/03/08 07:36:23;;;;;;;0.35;0.30;;;;;;;18.55;31.24;99259.56;16124954;19;130952;-42
2023/03/08 07:41:45;;;;;;;2.75;0.30;;;;;;;18.57;30.97;99260.09;16122522;19;129503;-44
2023/03/08 07:47:08;;;;;;;1.38;0.40;;;;;;;18.80;30.73;99241.09;16124978;19;129458;-43
2023/03/08 07:52:30;;;;;;;1.80;0.30;;;;;;;19.10;30.29;99228.09;16124602;19;130781;-42
2023/03/08 07:57:52;;;;;;;1.17;0.28;;;;;;;19.30;29.53;99225.19;16125448;19;129127;-40
2023/03/08 08:03:14;;;;;;;0.55;0.20;;;;;;;19.41;29.75;99220.34;16126098;19;129833;-41
2023/03/08 08:08:36;;;;;;;1.13;0.20;;;;;;;19.41;29.24;99223.09;16123710;19;129526;-41
2023/03/08 08:13:57;;;;;;;1.08;0.20;;;;;;;19.39;29.43;99208.69;16122249;19;130570;-41
2023/03/08 08:19:19;;;;;;;0.45;0.22;;;;;;;19.34;29.38;99220.69;16124114;19;129691;-41
2023/03/08 08:24:41;;;;;;;1.85;0.30;;;;;;;19.29;29.78;99242.94;16119450;19;130121;-43
2023/03/08 08:30:04;;;;;;;0.77;0.25;;;;;;;19.24;29.52;99240.19;16121524;19;128919;-40
2023/03/08 08:35:26;;;;;;;4.93;0.30;;;;;;;19.17;29.58;99229.41;16121877;19;129328;-42
2023/03/08 08:41:05;;;;;;;0.52;0.20;;;;;;;19.11;29.47;99233.34;16119595;19;129411;-43
2023/03/08 08:46:27;;;;;;;1.38;0.20;;;;;;;19.08;29.61;99245.84;16121194;19;129299;-42
2023/03/08 08:51:49;;;;;;;0.22;0.22;;;;;;;19.12;29.56;99243.34;16124588;19;130031;-42
2023/03/08 08:57:11;;;;;;;1.60;0.35;;;;;;;19.23;29.17;99210.81;16121931;19;130170;-41
2023/03/08 09:02:33;;;;;;;0.40;0.30;;;;;;;19.38;29.04;99184.91;16123527;19;129920;-41
2023/03/08 09:07:57;;;;;;;3.83;0.30;;;;;;;19.52;28.51;99176.69;16120829;19;130752;-42
2023/03/08 09:13:23;;;;;;;1.80;0.30;;;;;;;19.61;28.44;99186.00;16118721;19;130220;-43
2023/03/08 09:18:46;;;;;;;1.08;0.28;;;;;;;19.71;28.37;99176.75;16116447;19;129571;-44
2023/03/08 09:24:10;;;;;;;2.05;0.35;;;;;;;19.81;28.25;99181.34;16120998;19;129520;-43
2023/03/08 09:29:33;;;;;;;0.85;0.50;;;;;;;19.89;28.22;99175.13;16118875;19;129581;-44
2023/03/08 09:34:56;;;;;;;1.10;0.43;;;;;;;19.94;28.14;99197.25;16119299;19;130097;-45
2023/03/08 09:40:25;;;;;;;0.40;0.30;;;;;;;19.96;27.94;99181.13;16116031;19;129172;-42
2023/03/08 09:45:51;;;;;;;0.68;0.43;;;;;;;19.94;28.38;99144.50;16117537;19;129534;-41
2023/03/08 09:51:17;;;;;;;0.50;0.35;;;;;;;19.88;27.99;99140.16;16128058;19;129745;-43
2023/03/08 09:56:45;;;;;;;0.68;0.40;;;;;;;19.80;28.30;99151.94;16133478;19;128981;-41
2023/03/08 10:02:39;;;;;;;0.68;0.45;;;;;;;19.74;28.32;99147.56;16134029;19;129147;-41
2023/03/08 10:08:21;;;;;;;0.40;0.40;;;;;;;19.61;28.43;99138.03;16133749;19;129633;-41
2023/03/08 10:13:47;;;;;;;2.75;0.60;;;;;;;19.50;28.28;99126.22;16128776;19;131436;-41
2023/03/08 10:19:26;;;;;;;0.80;0.40;;;;;;;19.43;28.65;99125.78;16132706;19;129825;-42
2023/03/08 10:24:54;;;;;;;0.30;0.30;;;;;;;19.36;28.59;99143.56;16128402;19;130030;-43
2023/03/08 10:30:18;;;;;;;0.80;0.50;;;;;;;19.29;28.73;99132.03;16130057;19;130243;-42
2023/03/08 10:36:01;;;;;;;1.48;0.30;;;;;;;19.22;28.51;99134.31;16130036;19;129480;-41
2023/03/08 10:41:24;;;;;;;0.55;0.30;;;;;;;19.14;28.48;99127.41;16131016;19;129792;-41
2023/03/08 10:46:48;;;;;;;0.77;0.50;;;;;;;19.08;28.78;99115.56;16130404;19;129294;-48
2023/03/08 10:52:25;;;;;;;8.23;0.55;;;;;;;19.05;28.73;99127.25;16131579;19;132237;-47
2023/03/08 10:57:57;;;;;;;;;;;;;;;18.97;28.74;99127.06;16134882;19;130640;-50
2023/03/08 11:03:21;;;;;;;1.13;0.57;;;;;;;18.94;28.94;99134.03;16128684;19;129974;-44
2023/03/08 11:08:58;;;;;;;4.32;0.65;;;;;;;18.92;28.55;99134.31;16126080;19;129557;-50
2023/03/08 11:14:20;;;;;;;5.82;1.05;;;;;;;18.87;28.78;99117.75;16131219;19;129502;-46
2023/03/08 11:20:09;;;;;;;5.97;1.20;;;;;;;18.87;28.98;99097.50;16126939;19;129776;-47
2023/03/08 11:25:43;;;;;;;8.45;0.80;;;;;;;18.86;29.09;99101.41;16127569;19;130206;-50
2023/03/08 11:31:14;;;;;;;5.32;0.90;;;;;;;18.83;29.08;99085.38;16128334;19;130798;-47
2023/03/08 11:36:43;;;;;;;4.75;0.82;;;;;;;18.76;29.25;99097.63;16112705;19;131292;-47
2023/03/08 11:42:20;;;;;;;8.90;0.98;;;;;;;18.78;29.26;99105.63;16127433;19;129795;-50
2023/03/08 11:47:50;;;;;;;5.85;1.20;;;;;;;18.75;29.48;99100.69;16123448;19;129443;-40
2023/03/08 11:53:30;;;;;;;8.60;1.20;;;;;;;18.74;29.13;99094.31;16124058;19;129465;-42
2023/03/08 11:58:59;;;;;;;4.35;1.30;;;;;;;18.70;29.63;99087.72;16125452;19;129588;-43
2023/03/08 12:04:31;;;;;;;2.95;1.23;;;;;;;18.68;29.54;99101.03;16120783;19;129090;-41
2023/03/08 12:10:28;;;;;;;5.22;1.58;;;;;;;18.65;29.20;99107.13;16125546;19;131929;-43
2023/03/08 12:15:59;;;;;;;2.97;1.23;;;;;;;18.59;29.49;99102.75;16122777;19;129711;-40
2023/03/08 12:21:33;;;;;;;6.70;1.45;;;;;;;18.58;29.22;99084.50;16124347;19;129501;-41
2023/03/08 12:27:00;;;;;;;4.13;1.70;;;;;;;18.54;29.79;99083.44;16123805;19;130339;-41
2023/03/08 12:32:23;;;;;;;1.88;1.23;;;;;;;18.52;29.26;99080.97;16120041;19;129050;-42
2023/03/08 12:37:55;;;;;;;1.92;1.30;;;;;;;18.53;29.43;99084.53;16120114;19;132270;-41
2023/03/08 12:43:19;;;;;;;1.70;1.50;;;;;;;18.50;29.69;99076.81;16118103;19;129522;-43
2023/03/08 12:48:41;;;;;;;2.80;1.60;;;;;;;18.48;29.69;99079.03;16123220;19;129615;-41
2023/03/08 12:54:03;;;;;;;4.70;2.17;;;;;;;18.47;29.23;99081.00;16120182;19;129291;-40
2023/03/08 12:59:32;;;;;;;2.40;1.55;;;;;;;18.57;29.09;99071.78;16120046;19;129777;-44
2023/03/08 13:05:40;;;;;;;3.70;1.65;;;;;;;18.82;29.08;99067.09;16121046;19;129703;-44
2023/03/08 13:11:08;;;;;;;1.98;1.40;;;;;;;19.08;28.91;99048.25;16118435;19;129587;-47
2023/03/08 13:16:35;;;;;;;2.88;1.35;;;;;;;19.36;28.61;99049.31;16120201;19;129320;-48
2023/03/08 13:22:16;;;;;;;10.10;1.50;;;;;;;19.66;28.33;99055.56;16117174;19;130434;-46
2023/03/08 13:27:50;;;;;;;4.32;1.65;;;;;;;19.84;28.08;99064.19;16118598;19;129447;-46
2023/03/08 13:33:21;;;;;;;3.42;1.73;;;;;;;19.90;28.11;99068.53;16116285;19;129728;-47
2023/03/08 13:38:43;;;;;;;5.20;1.95;;;;;;;19.82;27.92;99072.81;16115440;19;129415;-46
2023/03/08 13:44:16;;;;;;;4.15;1.38;;;;;;;19.70;28.48;99064.13;16117177;19;130174;-41
2023/03/08 13:49:44;;;;;;;1.98;1.55;;;;;;;19.64;28.38;99049.50;16117244;19;130598;-41
2023/03/08 13:55:14;;;;;;;3.38;1.83;;;;;;;19.66;28.62;99051.97;16118937;19;129378;-43
2023/03/08 14:00:36;;;;;;;6.72;1.67;;;;;;;19.78;28.34;99059.84;16111977;19;131111;-40
2023/03/08 14:05:58;;;;;;;3.97;1.67;;;;;;;19.86;28.39;99069.44;16116636;19;131163;-44
2023/03/08 14:11:25;;;;;;;3.72;1.80;;;;;;;19.94;28.75;99057.66;16110078;19;130156;-43
2023/03/08 14:16:51;;;;;;;8.50;2.55;;;;;;;19.98;28.32;99053.97;16109152;19;129945;-43
2023/03/08 14:22:17;;;;;;;3.50;2.15;;;;;;;20.04;28.14;99051.16;16110356;19;129626;-45
2023/03/08 14:27:58;;;;;;;4.53;2.78;;;;;;;20.06;28.48;99065.56;16112230;19;130433;-42
2023/03/08 14:33:20;;;;;;;3.15;2.45;;;;;;;20.05;28.31;99063.94;16110384;19;130004;-45
2023/03/08 14:38:54;;;;;;;5.53;2.60;;;;;;;19.98;28.27;99070.63;16126432;19;130797;-43
2023/03/08 14:44:21;;;;;;;3.38;2.30;;;;;;;19.97;28.32;99063.44;16128064;19;129394;-44
2023/03/08 14:49:54;;;;;;;2.97;2.13;;;;;;;19.97;28.56;99051.50;16127034;19;129544;-42
2023/03/08 14:55:23;;;;;;;4.22;2.20;;;;;;;20.01;28.25;99058.13;16127003;19;132207;-42
2023/03/08 15:01:03;;;;;;;6.72;2.42;;;;;;;20.05;28.53;99055.59;16128958;19;129682;-45
2023/03/08 15:06:33;;;;;;;3.60;2.35;;;;;;;20.07;28.17;99056.94;16125596;19;130584;-42
2023/03/08 15:11:58;;;;;;;6.18;2.47;;;;;;;20.06;28.23;99043.38;16131232;19;131811;-42
2023/03/08 15:17:21;;;;;;;4.63;2.80;;;;;;;20.07;28.46;99053.31;16128677;19;131361;-42
2023/03/08 15:22:49;;;;;;;5.45;2.70;;;;;;;20.08;28.32;99052.19;16128222;19;130997;-43
2023/03/08 15:28:16;;;;;;;2.70;2.50;;;;;;;20.06;28.44;99048.91;16129416;19;129679;-41
2023/03/08 15:33:38;;;;;;;7.32;2.55;;;;;;;19.99;28.55;99041.78;16125306;19;129443;-43
2023/03/08 15:39:00;;;;;;;5.20;2.65;;;;;;;19.93;28.93;99034.66;16124342;19;130341;-42
2023/03/08 15:44:21;;;;;;;5.65;2.72;;;;;;;19.80;28.58;99044.53;16122389;19;129695;-43
2023/03/08 15:49:43;;;;;;;3.92;2.92;;;;;;;19.66;28.87;99038.09;16123952;19;131348;-44
2023/03/08 15:55:06;;;;;;;9.80;2.83;;;;;;;19.55;29.20;99023.56;16117280;19;131024;-42
2023/03/08 16:00:28;;;;;;;5.05;2.70;;;;;;;19.49;29.16;99013.63;16122376;19;129326;-42
2023/03/08 16:05:50;;;;;;;4.30;2.58;;;;;;;19.41;29.28;99017.91;16123541;19;129900;-42
2023/03/08 16:11:15;;;;;;;3.90;2.90;;;;;;;19.34;29.40;99021.03;16123436;19;130624;-43
2023/03/08 16:16:36;;;;;;;3.13;2.83;;;;;;;19.27;29.33;99023.38;16123602;19;129548;-42
2023/03/08 16:22:06;;;;;;;6.35;2.78;;;;;;;19.17;29.30;99029.81;16110927;19;131001;-42
2023/03/08 16:27:35;;;;;;;6.50;3.03;;;;;;;19.16;29.55;99050.34;16111724;19;131714;-41
2023/03/08 16:32:58;;;;;;;5.13;3.58;;;;;;;19.16;29.42;99055.88;16114271;19;131338;-42
2023/03/08 16:38:21;;;;;;;3.67;2.85;;;;;;;19.27;29.74;99042.78;16120988;19;130035;-43
2023/03/08 16:43:43;;;;;;;5.95;3.13;;;;;;;19.38;29.57;99030.41;16110905;19;131955;-42
2023/03/08 16:49:08;;;;;;;5.25;2.78;;;;;;;19.49;29.36;99031.13;16125263;19;129435;-42
2023/03/08 16:54:30;;;;;;;4.10;3.08;;;;;;;19.61;29.07;99033.44;16118972;19;131058;-42
2023/03/08 16:59:52;;;;;;;4.18;3.20;;;;;;;19.69;29.27;99038.31;16117602;19;130066;-41
2023/03/08 17:05:13;;;;;;;4.22;3.22;;;;;;;19.70;29.20;99039.16;16119987;19;129851;-41
2023/03/08 17:10:40;;;;;;;4.65;3.38;;;;;;;19.68;28.67;99028.34;16115983;19;133766;-42
2023/03/08 17:16:02;;;;;;;4.85;3.08;;;;;;;19.64;28.83;99018.13;16116833;19;131874;-41
2023/03/08 17:21:25;;;;;;;5.45;3.13;;;;;;;19.57;29.06;99004.63;16116486;19;131133;-44
2023/03/08 17:26:50;;;;;;;5.78;3.10;;;;;;;19.48;29.21;98970.38;16119830;19;128988;-41
2023/03/08 17:32:12;;;;;;;4.90;3.50;;;;;;;19.40;29.26;98976.63;16116154;19;129032;-42
2023/03/08 17:37:42;;;;;;;5.50;3.95;;;;;;;19.28;29.19;98955.72;16116377;19;129971;-48
2023/03/08 17:43:04;;;;;;;4.13;3.10;;;;;;;19.25;28.96;98942.44;16116955;19;130144;-43
2023/03/08 17:48:26;;;;;;;7.20;3.40;;;;;;;19.38;29.00;98963.06;16110457;19;132579;-45
2023/03/08 17:53:48;;;;;;;4.65;3.25;;;;;;;19.86;29.03;98981.47;16114207;19;129458;-44
2023/03/08 17:59:13;;;;;;;6.03;2.78;;;;;;;20.41;28.34;98991.94;16115053;19;129778;-41
2023/03/08 18:04:35;;;;;;;3.83;2.87;;;;;;;20.90;27.76;98995.22;16116104;19;130527;-43
2023/03/08 18:09:57;;;;;;;4.88;2.90;;;;;;;21.15;27.97;98978.31;16120175;19;130018;-42
2023/03/08 18:15:18;;;;;;;3.65;2.95;;;;;;;21.18;27.57;98978.50;16128916;19;130347;-43
2023/03/08 18:20:40;;;;;;;4.28;3.20;;;;;;;21.10;27.67;98973.69;16132707;19;129406;-42
2023/03/08 18:26:02;;;;;;;10.02;3.30;;;;;;;20.97;28.16;98971.72;16129036;19;129736;-40
2023/03/08 18:31:25;;;;;;;7.00;3.30;;;;;;;20.85;29.07;98981.41;16122771;19;130864;-43
2023/03/08 18:36:47;;;;;;;11.40;3.95;;;;;;;20.72;29.54;98983.03;16128247;19;129813;-41
2023/03/08 18:42:09;;;;;;;11.95;4.60;;;;;;;20.57;29.45;99000.00;16126891;19;130243;-42
2023/03/08 18:47:30;;;;;;;15.55;4.82;;;;;;;20.50;30.04;98997.63;16124204;19;134275;-45
2023/03/08 18:52:52;;;;;;;7.82;3.67;;;;;;;20.56;29.78;98990.81;16129303;19;129281;-41
2023/03/08 18:58:14;;;;;;;7.57;4.13;;;;;;;20.71;29.63;98997.22;16128097;19;129705;-40
2023/03/08 19:03:36;;;;;;;18.92;4.03;;;;;;;20.96;29.76;98989.53;16125575;19;130910;-40
2023/03/08 19:08:58;;;;;;;12.70;3.83;;;;;;;21.20;29.55;98981.78;16126047;19;129397;-40
2023/03/08 19:14:20;;;;;;;10.43;3.30;;;;;;;21.47;29.55;98963.41;16127446;19;130980;-43
2023/03/08 19:19:41;;;;;;;6.75;3.25;;;;;;;21.68;29.14;98976.84;16125284;19;129297;-41
2023/03/08 19:25:04;;;;;;;5.72;3.30;;;;;;;21.86;28.80;98979.78;16121019;19;129836;-41
2023/03/08 19:30:27;;;;;;;8.55;2.97;;;;;;;22.03;28.89;98974.34;16121835;19;131248;-42
2023/03/08 19:35:48;;;;;;;6.50;3.25;;;;;;;22.15;29.06;98976.56;16119950;19;129310;-44
2023/03/08 19:41:10;;;;;;;5.05;2.92;;;;;;;22.23;28.87;98981.38;16119203;19;134293;-40
2023/03/08 19:46:37;;;;;;;6.55;3.13;;;;;;;22.25;28.53;98958.78;16117282;19;129660;-40
2023/03/08 19:52:03;;;;;;;5.55;2.92;;;;;;;22.23;28.67;98958.28;16125774;19;129581;-40
2023/03/08 19:57:25;;;;;;;7.85;3.30;;;;;;;22.15;28.98;98947.91;16120770;19;129358;-40
2023/03/08 20:02:46;;;;;;;3.72;2.85;;;;;;;22.02;28.87;98947.66;16122829;19;130947;-40
2023/03/08 20:08:09;;;;;;;6.05;3.00;;;;;;;21.89;29.40;98937.41;16123707;19;129826;-41
2023/03/08 20:13:31;;;;;;;5.90;3.03;;;;;;;21.76;29.60;98922.41;16119749;19;129457;-41
2023/03/08 20:18:56;;;;;;;11.18;3.40;;;;;;;21.65;29.14;98919.88;16120362;19;130639;-42
2023/03/08 20:24:18;;;;;;;7.53;3.38;;;;;;;21.58;29.55;98927.03;16120053;19;130094;-42
2023/03/08 20:29:40;;;;;;;7.53;3.35;;;;;;;21.49;29.70;98925.00;16119595;19;130193;-43
2023/03/08 20:35:04;;;;;;;10.30;3.55;;;;;;;21.37;29.68;98921.91;16117301;19;130676;-42
2023/03/08 20:40:25;;;;;;;5.20;2.97;;;;;;;21.26;29.47;98929.66;16120242;19;129993;-42
2023/03/08 20:45:47;;;;;;;9.05;3.97;;;;;;;21.16;29.96;98925.19;16120084;19;129324;-42
2023/03/08 20:51:13;;;;;;;7.20;3.17;;;;;;;21.14;29.91;98929.38;16118539;19;130148;-41
2023/03/08 20:56:35;;;;;;;;;;;;;;;21.21;30.03;98916.69;16120904;19;129746;-42
2023/03/08 21:01:57;;;;;;;6.97;3.13;;;;;;;21.48;29.68;98906.63;16119743;19;129040;-41
2023/03/08 21:07:19;;;;;;;9.23;3.03;;;;;;;21.85;29.47;98916.91;16116594;19;129849;-43
2023/03/08 21:12:41;;;;;;;6.28;3.08;;;;;;;22.11;29.15;98897.56;16119065;19;129442;-42
2023/03/08 21:18:02;;;;;;;3.70;2.47;;;;;;;22.21;28.87;98902.91;16113327;19;129165;-44
2023/03/08 21:23:25;;;;;;;4.43;2.60;;;;;;;22.26;28.85;98907.53;16113153;19;130369;-44
2023/03/08 21:28:47;;;;;;;11.82;3.50;;;;;;;22.22;28.87;98900.94;16114114;19;130482;-44
2023/03/08 21:34:11;;;;;;;8.70;2.80;;;;;;;22.17;29.32;98892.69;16111807;19;131038;-43
2023/03/08 21:39:33;;;;;;;7.43;2.78;;;;;;;22.08;29.29;98882.31;16109418;19;130227;-42
2023/03/08 21:44:55;;;;;;;3.38;2.55;;;;;;;21.95;29.72;98889.63;16114797;19;130836;-41
2023/03/08 21:50:17;;;;;;;5.78;2.67;;;;;;;21.81;30.07;98867.44;16134094;19;129591;-45
2023/03/08 21:55:40;;;;;;;4.93;2.90;;;;;;;21.68;30.09;98862.75;16131040;19;130483;-42
2023/03/08 22:01:03;;;;;;;7.45;2.80;;;;;;;21.50;30.46;98857.09;16124213;19;130518;-45
2023/03/08 22:06:26;;;;;;;4.65;2.90;;;;;;;21.39;30.53;98854.84;16125887;19;129704;-40
2023/03/08 22:11:48;;;;;;;6.85;2.88;;;;;;;21.24;30.52;98850.47;16127881;19;129693;-41
2023/03/08 22:17:10;;;;;;;7.78;3.00;;;;;;;21.10;30.44;98853.31;16126017;19;130171;-46
2023/03/08 22:22:31;;;;;;;4.65;2.70;;;;;;;20.96;30.65;98864.44;16130532;19;130092;-41
2023/03/08 22:27:53;;;;;;;4.15;2.90;;;;;;;20.81;30.22;98873.97;16126638;19;129720;-41
2023/03/08 22:33:15;;;;;;;4.40;3.03;;;;;;;20.68;30.73;98886.69;16130474;19;130146;-41
2023/03/08 22:38:37;;;;;;;4.05;3.25;;;;;;;20.53;30.61;98874.78;16126962;19;130822;-42
2023/03/08 22:44:02;;;;;;;4.38;2.97;;;;;;;20.41;30.82;98868.94;16127460;19;132171;-41
2023/03/08 22:49:24;;;;;;;7.07;2.95;;;;;;;20.29;30.62;98878.59;16122839;19;129887;-42
2023/03/08 22:54:46;;;;;;;4.25;3.28;;;;;;;20.18;30.82;98874.38;16123859;19;129042;-42
2023/03/08 23:00:13;;;;;;;6.60;3.58;;;;;;;20.06;30.39;98871.28;16124477;19;131123;-43
2023/03/08 23:05:35;;;;;;;4.53;2.90;;;;;;;19.96;30.47;98872.25;16122868;19;130670;-41
2023/03/08 23:10:56;;;;;;;3.13;2.83;;;;;;;19.87;30.56;98863.78;16125344;19;131366;-44
2023/03/08 23:16:19;;;;;;;4.57;2.67;;;;;;;19.79;30.66;98870.06;16125718;19;131893;-42
2023/03/08 23:21:43;;;;;;;2.90;2.42;;;;;;;19.71;30.83;98865.19;16122067;19;129847;-45
2023/03/08 23:27:05;;;;;;;3.20;2.90;;;;;;;19.62;31.07;98862.31;16122234;19;129654;-44
2023/03/08 23:32:26;;;;;;;3.55;2.53;;;;;;;19.56;30.74;98869.88;16121541;19;131155;-43
2023/03/08 23:37:48;;;;;;;2.85;2.38;;;;;;;19.49;30.73;98874.97;16124498;19;130667;-42
2023/03/08 23:43:10;;;;;;;2.80;2.20;;;;;;;19.44;31.15;98884.22;16124656;19;131084;-44
2023/03/08 23:48:32;;;;;;;3.35;2.40;;;;;;;19.38;31.24;98897.31;16119348;19;130847;-41
2023/03/08 23:53:56;;;;;;;3.78;2.40;;;;;;;19.32;31.15;98881.06;16120889;19;129655;-41
2023/03/08 23:59:20;;;;;;;2.50;2.30;;;;;;;19.26;31.07;98860.91;16122343;19;130084;-41
